Time;durP1;ratioP1;P1;durP2;ratioP2;P2;SDS_P1;SDS_P2;PMS_P1;PMS_P2;Temp;Humidity;BMP_temperature;BMP_pressure;BME280_temperature;BME280_humidity;BME280_pressure;Samples;Min_cycle;Max_cycle;Signal;HPM_P1;HPM_P2
2020/12/17 00:01:30;;;;;;;9.17;7.40;;;10.90;99.90;;;;;;5046312;28;20182;-40
2020/12/17 00:03:55;;;;;;;7.80;6.67;;;10.80;99.90;;;;;;5045499;28;20190;-38
2020/12/17 00:06:21;;;;;;;9.23;7.30;;;10.90;99.90;;;;;;5047589;28;20703;-38
2020/12/17 00:08:47;;;;;;;7.47;6.57;;;10.80;99.90;;;;;;5048952;28;20205;-39
2020/12/17 00:11:12;;;;;;;8.10;6.40;;;10.90;99.90;;;;;;5048643;28;20190;-39
2020/12/17 00:13:38;;;;;;;8.90;6.57;;;10.80;99.90;;;;;;5047684;28;20222;-39
2020/12/17 00:16:04;;;;;;;10.40;6.00;;;10.90;99.90;;;;;;5048565;28;20225;-39
2020/12/17 00:18:29;;;;;;;7.07;6.37;;;10.70;99.90;;;;;;5048354;28;20197;-40
2020/12/17 00:20:55;;;;;;;6.73;6.07;;;10.90;99.90;;;;;;5048635;28;20195;-38
2020/12/17 00:23:21;;;;;;;7.40;6.30;;;10.80;99.90;;;;;;5047968;28;20656;-39
2020/12/17 00:25:46;;;;;;;7.03;6.00;;;10.80;99.90;;;;;;5048114;28;20288;-38
2020/12/17 00:28:12;;;;;;;9.80;6.77;;;10.90;99.90;;;;;;5048662;28;20182;-39
2020/12/17 00:30:38;;;;;;;7.27;6.10;;;10.90;99.90;;;;;;5048526;28;20194;-39
2020/12/17 00:33:03;;;;;;;7.30;5.60;;;10.80;99.90;;;;;;5047859;28;20217;-39
2020/12/17 00:35:29;;;;;;;8.30;6.40;;;11.00;99.90;;;;;;5048314;28;20352;-39
2020/12/17 00:37:56;;;;;;;6.77;6.00;;;11.00;99.90;;;;;;5048175;28;20233;-39
2020/12/17 00:40:21;;;;;;;6.37;5.60;;;11.10;99.90;;;;;;5047867;28;20181;-39
2020/12/17 00:42:47;;;;;;;7.77;5.73;;;11.10;99.90;;;;;;5048343;28;20450;-38
2020/12/17 00:45:14;;;;;;;7.10;6.40;;;11.00;99.90;;;;;;5047060;28;20182;-38
2020/12/17 00:47:40;;;;;;;9.17;5.80;;;11.20;99.90;;;;;;5048241;28;20515;-38
2020/12/17 00:50:08;;;;;;;6.90;5.90;;;11.00;99.90;;;;;;5048349;28;20416;-38
2020/12/17 00:52:40;;;;;;;6.63;5.93;;;11.00;99.90;;;;;;5048070;28;20830;-39
2020/12/17 00:55:07;;;;;;;6.70;5.63;;;11.30;99.90;;;;;;5047294;28;20519;-39
2020/12/17 00:57:33;;;;;;;5.53;4.90;;;11.10;99.90;;;;;;5048023;28;20447;-39
2020/12/17 00:59:59;;;;;;;5.50;4.90;;;11.10;99.90;;;;;;5046571;28;20448;-39
2020/12/17 01:02:24;;;;;;;7.40;5.50;;;11.10;99.90;;;;;;5047886;28;20993;-38
2020/12/17 01:04:50;;;;;;;6.47;5.80;;;11.00;99.90;;;;;;5047379;28;20566;-39
2020/12/17 01:07:17;;;;;;;6.30;5.70;;;11.00;99.90;;;;;;5026428;28;20194;-39
2020/12/17 01:09:42;;;;;;;5.87;5.27;;;11.20;99.90;;;;;;5038929;28;20189;-39
2020/12/17 01:12:08;;;;;;;5.33;4.73;;;11.10;99.90;;;;;;5046171;28;20997;-39
2020/12/17 01:14:35;;;;;;;5.40;4.67;;;11.10;99.90;;;;;;5047320;28;20477;-38
2020/12/17 01:17:02;;;;;;;6.23;5.50;;;11.10;99.90;;;;;;5047453;28;20208;-39
2020/12/17 01:19:29;;;;;;;6.10;5.47;;;11.30;99.90;;;;;;5048152;28;20423;-39
2020/12/17 01:21:55;;;;;;;6.33;5.50;;;11.00;99.90;;;;;;5047799;28;20837;-38
2020/12/17 01:24:21;;;;;;;5.70;5.10;;;11.00;99.90;;;;;;5047300;28;20427;-39
2020/12/17 01:26:46;;;;;;;6.20;5.00;;;11.10;99.90;;;;;;5047518;28;20194;-39
2020/12/17 01:29:12;;;;;;;6.47;4.90;;;11.10;99.90;;;;;;5047945;28;20193;-39
2020/12/17 01:31:38;;;;;;;7.00;5.33;;;10.80;99.90;;;;;;5046166;28;20216;-38
2020/12/17 01:34:04;;;;;;;7.37;5.07;;;10.90;99.90;;;;;;5046971;28;20553;-39
2020/12/17 01:36:29;;;;;;;5.53;4.83;;;11.00;99.90;;;;;;5047282;28;20428;-39
2020/12/17 01:38:55;;;;;;;5.10;4.60;;;10.90;99.90;;;;;;5047696;28;20506;-38
2020/12/17 01:41:20;;;;;;;5.30;4.80;;;10.70;99.90;;;;;;5047839;28;20193;-38
2020/12/17 01:43:47;;;;;;;6.67;4.97;;;11.10;99.90;;;;;;5047007;28;20236;-38
2020/12/17 01:46:14;;;;;;;6.27;5.00;;;10.90;99.90;;;;;;5047651;28;20194;-38
2020/12/17 01:48:41;;;;;;;6.30;4.90;;;11.00;99.90;;;;;;5047407;28;20427;-39
2020/12/17 01:51:08;;;;;;;5.47;4.87;;;11.00;99.90;;;;;;5047074;28;20421;-39
2020/12/17 01:53:39;;;;;;;7.07;4.53;;;11.00;99.90;;;;;;5046756;28;20893;-39
2020/12/17 01:56:20;;;;;;;5.47;4.77;;;11.00;99.90;;;;;;5046063;28;20466;-39
2020/12/17 01:59:11;;;;;;;6.03;5.43;;;11.00;99.90;;;;;;5050959;28;20510;-38
2020/12/17 02:01:43;;;;;;;5.80;4.57;;;11.00;99.90;;;;;;5049374;28;20428;-38
2020/12/17 02:04:09;;;;;;;6.30;4.70;;;10.90;99.90;;;;;;5050158;28;21273;-39
2020/12/17 02:06:35;;;;;;;5.80;4.70;;;11.00;99.90;;;;;;5051090;28;20507;-39
2020/12/17 02:09:03;;;;;;;5.83;5.23;;;11.20;99.90;;;;;;5050863;28;20423;-38
2020/12/17 02:11:29;;;;;;;5.40;4.37;;;11.30;99.90;;;;;;5051301;28;20446;-39
2020/12/17 02:13:54;;;;;;;4.70;4.17;;;11.20;99.90;;;;;;5050075;28;20463;-39
2020/12/17 02:16:20;;;;;;;5.47;4.47;;;11.30;99.90;;;;;;5050860;28;20676;-40
2020/12/17 02:18:49;;;;;;;5.70;4.90;;;11.30;99.90;;;;;;5051050;28;20192;-39
2020/12/17 02:21:15;;;;;;;5.70;5.00;;;11.10;99.90;;;;;;5049791;28;20463;-38
2020/12/17 02:23:44;;;;;;;4.73;4.30;;;11.40;99.90;;;;;;5048706;28;20423;-39
2020/12/17 02:26:10;;;;;;;5.60;4.63;;;11.10;99.90;;;;;;5050779;28;20202;-39
2020/12/17 02:28:36;;;;;;;4.93;4.03;;;11.10;99.90;;;;;;5048957;28;20428;-38
2020/12/17 02:31:02;;;;;;;4.47;3.97;;;11.10;99.90;;;;;;5050889;28;20201;-39
2020/12/17 02:33:27;;;;;;;5.30;4.53;;;11.10;99.90;;;;;;5049831;28;20958;-38
2020/12/17 02:35:54;;;;;;;4.73;4.20;;;11.00;99.90;;;;;;5050549;28;20186;-39
2020/12/17 02:38:19;;;;;;;4.80;4.27;;;11.00;99.90;;;;;;5065660;28;20683;-38
2020/12/17 02:40:45;;;;;;;6.00;3.93;;;11.10;99.90;;;;;;5050498;28;20423;-38
2020/12/17 02:43:11;;;;;;;4.43;4.03;;;11.10;99.90;;;;;;5049395;28;20241;-40
2020/12/17 02:45:46;;;;;;;5.37;4.87;;;11.20;99.90;;;;;;5050337;28;20244;-38
2020/12/17 02:48:12;;;;;;;4.63;4.13;;;11.10;99.90;;;;;;5050420;28;20419;-39
2020/12/17 02:50:41;;;;;;;4.57;4.03;;;11.20;99.90;;;;;;5050158;28;20428;-39
2020/12/17 02:53:08;;;;;;;5.57;5.00;;;11.00;99.90;;;;;;5049669;28;20456;-39
2020/12/17 02:55:35;;;;;;;6.87;4.30;;;11.10;99.90;;;;;;5050155;28;20417;-38
2020/12/17 02:58:00;;;;;;;5.03;4.37;;;11.10;99.90;;;;;;5050377;28;21014;-39
2020/12/17 03:00:26;;;;;;;6.10;5.10;;;11.00;99.90;;;;;;5048269;28;20460;-39
2020/12/17 03:02:52;;;;;;;5.30;4.80;;;11.00;99.90;;;;;;5049657;28;20538;-38
2020/12/17 03:05:18;;;;;;;6.00;4.83;;;11.00;99.90;;;;;;5048581;28;20486;-38
2020/12/17 03:07:44;;;;;;;4.30;3.90;;;11.00;99.90;;;;;;5049993;28;20432;-39
2020/12/17 03:10:13;;;;;;;6.30;4.50;;;11.00;99.90;;;;;;5048639;28;20200;-39
2020/12/17 03:12:43;;;;;;;5.60;4.10;;;11.10;99.90;;;;;;5049948;28;20631;-39
2020/12/17 03:15:12;;;;;;;4.73;3.87;;;11.00;99.90;;;;;;5048184;28;20775;-41
2020/12/17 03:17:39;;;;;;;5.10;4.30;;;11.00;99.90;;;;;;5050216;28;20436;-39
2020/12/17 03:20:06;;;;;;;4.80;4.27;;;11.10;99.90;;;;;;5049550;28;20416;-38
2020/12/17 03:22:32;;;;;;;5.20;4.70;;;11.10;99.90;;;;;;5049695;28;20431;-39
2020/12/17 03:24:58;;;;;;;5.03;4.53;;;11.00;99.90;;;;;;5049077;28;20436;-38
2020/12/17 03:27:23;;;;;;;6.30;4.57;;;11.00;99.90;;;;;;5049641;28;20421;-38
2020/12/17 03:29:49;;;;;;;5.13;4.00;;;11.00;99.90;;;;;;5049482;28;20499;-40
2020/12/17 03:32:15;;;;;;;5.80;4.43;;;11.10;99.90;;;;;;5049534;28;20676;-38
2020/12/17 03:34:41;;;;;;;5.73;4.93;;;11.00;99.90;;;;;;5048720;28;20174;-40
2020/12/17 03:37:08;;;;;;;4.60;4.20;;;11.00;99.90;;;;;;5049459;28;20421;-38
2020/12/17 03:39:34;;;;;;;4.37;3.80;;;11.20;99.90;;;;;;5049049;28;20545;-38
2020/12/17 03:42:01;;;;;;;5.87;5.07;;;11.00;99.90;;;;;;5049562;28;20791;-39
2020/12/17 03:44:26;;;;;;;5.37;4.30;;;11.00;99.90;;;;;;5048867;28;20424;-40
2020/12/17 03:46:52;;;;;;;5.47;4.50;;;11.10;99.90;;;;;;5049207;28;20915;-39
2020/12/17 03:49:17;;;;;;;4.70;4.20;;;10.90;99.90;;;;;;5049264;28;20193;-39
2020/12/17 03:51:43;;;;;;;5.33;4.83;;;10.90;99.90;;;;;;5047913;28;20556;-38
2020/12/17 03:54:09;;;;;;;5.10;4.70;;;11.00;99.90;;;;;;5048493;28;20190;-39
2020/12/17 03:56:35;;;;;;;6.07;4.57;;;11.10;99.90;;;;;;5048966;28;20431;-38
2020/12/17 03:59:00;;;;;;;5.90;4.80;;;11.10;99.90;;;;;;5049106;28;20213;-39
2020/12/17 04:01:26;;;;;;;5.03;4.53;;;11.10;99.90;;;;;;5047798;28;20275;-38
2020/12/17 04:03:52;;;;;;;6.10;4.90;;;11.10;99.90;;;;;;5048470;28;20193;-38
2020/12/17 04:06:18;;;;;;;6.83;5.13;;;11.10;99.90;;;;;;5049047;28;20690;-39
2020/12/17 04:08:43;;;;;;;6.40;5.00;;;11.00;99.90;;;;;;5048528;28;20447;-38
2020/12/17 04:11:10;;;;;;;5.57;5.07;;;11.20;99.90;;;;;;5048939;28;20200;-40
2020/12/17 04:13:36;;;;;;;6.00;4.70;;;11.00;99.90;;;;;;5047927;28;20217;-39
2020/12/17 04:16:03;;;;;;;7.47;5.17;;;11.00;99.90;;;;;;5048582;28;20442;-38
2020/12/17 04:18:29;;;;;;;6.00;4.77;;;11.00;99.90;;;;;;5048489;28;20421;-39
2020/12/17 04:20:55;;;;;;;5.17;4.40;;;11.00;99.90;;;;;;5047716;28;20497;-39
2020/12/17 04:23:21;;;;;;;5.57;5.07;;;11.00;99.90;;;;;;5047477;28;20756;-39
2020/12/17 04:25:46;;;;;;;5.80;4.70;;;11.00;99.90;;;;;;5048584;28;20217;-39
2020/12/17 04:28:12;;;;;;;5.27;4.77;;;11.00;99.90;;;;;;5048203;28;20467;-39
2020/12/17 04:30:37;;;;;;;7.10;5.07;;;10.90;99.90;;;;;;5048593;28;20523;-39
2020/12/17 04:33:03;;;;;;;5.17;4.50;;;11.00;99.90;;;;;;5047559;28;20292;-38
2020/12/17 04:35:29;;;;;;;5.50;4.90;;;11.10;99.90;;;;;;5048408;28;20174;-39
2020/12/17 04:37:55;;;;;;;6.10;5.50;;;11.00;99.90;;;;;;5047850;28;20193;-38
2020/12/17 04:40:20;;;;;;;5.37;4.87;;;10.90;99.90;;;;;;5048427;28;20202;-38
2020/12/17 04:42:48;;;;;;;7.07;5.10;;;10.90;99.90;;;;;;5048048;28;20197;-38
2020/12/17 04:45:14;;;;;;;5.40;4.70;;;11.10;99.90;;;;;;5047715;28;20260;-39
2020/12/17 04:47:44;;;;;;;5.47;4.73;;;11.00;99.90;;;;;;5047937;28;20427;-38
2020/12/17 04:50:11;;;;;;;7.63;5.00;;;10.90;99.90;;;;;;5048523;28;20965;-38
2020/12/17 04:52:39;;;;;;;5.80;4.80;;;10.90;99.90;;;;;;5047728;28;20466;-38
2020/12/17 04:55:06;;;;;;;5.63;4.83;;;11.10;99.90;;;;;;5047596;28;20538;-38
2020/12/17 04:57:33;;;;;;;5.57;5.00;;;11.00;99.90;;;;;;5048163;28;20432;-39
2020/12/17 04:59:59;;;;;;;5.43;4.93;;;10.80;99.90;;;;;;5047569;28;20459;-39
2020/12/17 05:02:25;;;;;;;5.43;4.83;;;11.10;99.90;;;;;;5048035;28;20435;-38
2020/12/17 05:04:54;;;;;;;6.50;4.97;;;11.10;99.90;;;;;;5047000;28;20439;-38
2020/12/17 05:07:24;;;;;;;7.03;5.40;;;11.10;99.90;;;;;;5048362;28;20456;-38
2020/12/17 05:09:50;;;;;;;7.60;4.93;;;11.10;99.90;;;;;;5047732;28;20420;-39
2020/12/17 05:12:17;;;;;;;6.83;5.33;;;11.10;99.90;;;;;;5047617;28;20456;-39
2020/12/17 05:14:43;;;;;;;8.40;5.07;;;11.00;99.90;;;;;;5047076;28;20432;-38
2020/12/17 05:17:09;;;;;;;6.00;5.40;;;10.90;99.90;;;;;;5047528;28;21124;-38
2020/12/17 05:19:35;;;;;;;5.50;5.00;;;11.10;99.90;;;;;;5046087;28;20424;-38
2020/12/17 05:22:02;;;;;;;7.00;5.70;;;11.10;99.90;;;;;;5047613;28;20416;-38
2020/12/17 05:24:29;;;;;;;7.97;5.47;;;11.10;99.90;;;;;;5047264;28;20477;-38
2020/12/17 05:26:57;;;;;;;5.47;4.80;;;11.00;99.90;;;;;;5047697;28;20768;-39
2020/12/17 05:29:24;;;;;;;5.93;4.80;;;11.10;99.90;;;;;;5047387;28;20701;-39
2020/12/17 05:31:50;;;;;;;5.70;5.10;;;11.00;99.90;;;;;;5049833;28;20412;-39
2020/12/17 05:34:17;;;;;;;6.67;5.47;;;11.00;99.90;;;;;;5049558;28;20502;-40
2020/12/17 05:36:46;;;;;;;5.90;5.30;;;10.90;99.90;;;;;;5051981;28;20423;-39
2020/12/17 05:39:15;;;;;;;6.33;4.87;;;11.00;99.90;;;;;;5050345;28;20416;-38
2020/12/17 05:41:43;;;;;;;6.23;5.50;;;10.90;99.90;;;;;;5051564;28;20412;-38
2020/12/17 05:44:25;;;;;;;5.77;5.20;;;11.10;99.90;;;;;;5050682;28;20828;-39
2020/12/17 05:46:51;;;;;;;5.37;4.87;;;11.00;99.90;;;;;;5051523;28;20427;-39
2020/12/17 05:49:22;;;;;;;6.40;5.67;;;11.00;99.90;;;;;;5051371;28;20639;-40
2020/12/17 05:51:50;;;;;;;7.97;4.80;;;11.00;99.90;;;;;;5051582;28;20528;-39
2020/12/17 05:54:26;;;;;;;6.60;4.93;;;10.90;99.90;;;;;;5050657;28;20420;-39
2020/12/17 05:57:08;;;;;;;8.43;5.63;;;11.00;99.90;;;;;;5051600;28;20416;-38
2020/12/17 05:59:35;;;;;;;6.33;5.50;;;10.90;99.90;;;;;;5048377;28;20421;-39
2020/12/17 06:02:21;;;;;;;6.40;5.20;;;11.20;99.90;;;;;;5042095;28;20436;-38
2020/12/17 06:05:22;;;;;;;6.97;5.37;;;10.90;99.90;;;;;;5049606;28;20415;-38
2020/12/17 06:07:50;;;;;;;8.33;5.73;;;11.00;99.90;;;;;;5043655;28;20415;-39
2020/12/17 06:10:29;;;;;;;6.17;5.30;;;10.80;99.90;;;;;;5050945;28;20824;-39
2020/12/17 06:12:57;;;;;;;5.87;5.23;;;10.90;99.90;;;;;;5050790;28;20799;-39
2020/12/17 06:15:32;;;;;;;6.10;5.50;;;11.00;99.90;;;;;;5050611;28;20887;-38
2020/12/17 06:18:02;;;;;;;7.00;5.70;;;11.00;99.90;;;;;;5050532;28;20435;-38
2020/12/17 06:20:30;;;;;;;7.80;5.47;;;10.90;99.90;;;;;;5050851;28;20744;-40
2020/12/17 06:22:58;;;;;;;6.67;5.17;;;10.70;99.90;;;;;;5050333;28;20434;-39
2020/12/17 06:25:26;;;;;;;6.43;5.63;;;11.00;99.90;;;;;;5050597;28;20922;-39
2020/12/17 06:27:52;;;;;;;6.73;6.13;;;11.00;99.90;;;;;;5050636;28;20417;-38
2020/12/17 06:30:26;;;;;;;8.37;6.53;;;11.00;99.90;;;;;;5049931;28;20512;-39
2020/12/17 06:32:56;;;;;;;5.87;5.10;;;10.80;99.90;;;;;;5047971;28;20462;-38
2020/12/17 06:35:28;;;;;;;7.43;6.70;;;10.80;99.90;;;;;;5050864;28;20868;-41
2020/12/17 06:37:55;;;;;;;8.20;6.37;;;10.80;99.90;;;;;;5050847;28;20416;-39
2020/12/17 06:40:28;;;;;;;6.60;5.57;;;10.90;99.90;;;;;;5050497;28;20667;-38
2020/12/17 06:42:55;;;;;;;6.13;5.50;;;10.80;99.90;;;;;;5048694;28;20427;-39
2020/12/17 06:45:24;;;;;;;6.60;5.83;;;10.80;99.90;;;;;;5049020;28;20423;-39
2020/12/17 06:47:50;;;;;;;6.80;6.00;;;10.80;99.90;;;;;;5050158;28;20433;-38
2020/12/17 06:50:38;;;;;;;7.77;5.97;;;11.00;99.90;;;;;;5050701;28;20511;-39
2020/12/17 06:53:06;;;;;;;9.53;6.13;;;10.70;99.90;;;;;;5049530;28;20464;-40
2020/12/17 06:56:01;;;;;;;7.37;5.90;;;10.80;99.90;;;;;;5050205;28;20923;-40
2020/12/17 06:58:26;;;;;;;6.83;6.13;;;10.80;99.90;;;;;;5050477;28;20524;-39
2020/12/17 07:00:54;;;;;;;6.17;5.57;;;10.80;99.90;;;;;;5048580;28;20503;-39
2020/12/17 07:03:40;;;;;;;7.23;5.80;;;10.60;99.90;;;;;;5048810;28;20190;-38
2020/12/17 07:06:16;;;;;;;9.60;5.80;;;10.70;99.90;;;;;;5050357;28;20448;-39
2020/12/17 07:08:44;;;;;;;6.27;5.70;;;10.50;99.90;;;;;;5049933;28;20435;-39
2020/12/17 07:11:45;;;;;;;7.63;6.77;;;10.60;99.90;;;;;;5046723;28;20808;-39
2020/12/17 07:14:26;;;;;;;6.70;6.00;;;10.50;99.90;;;;;;5054229;28;20465;-38
2020/12/17 07:16:59;;;;;;;8.37;6.50;;;10.50;99.90;;;;;;5069525;28;20431;-38
2020/12/17 07:19:27;;;;;;;6.87;6.20;;;10.60;99.90;;;;;;5050662;28;20489;-38
2020/12/17 07:22:04;;;;;;;6.90;6.30;;;10.40;99.90;;;;;;5048470;28;20447;-38
2020/12/17 07:24:37;;;;;;;8.27;7.20;;;10.50;99.90;;;;;;5047140;28;20423;-38
2020/12/17 07:27:06;;;;;;;7.97;7.17;;;10.30;99.90;;;;;;5048076;28;20413;-39
2020/12/17 07:29:41;;;;;;;8.00;7.13;;;10.50;99.90;;;;;;5047534;28;20506;-39
2020/12/17 07:32:29;;;;;;;10.63;7.73;;;10.50;99.90;;;;;;5047689;28;20604;-38
2020/12/17 07:35:00;;;;;;;8.63;7.77;;;10.20;99.90;;;;;;5046570;28;20786;-39
2020/12/17 07:37:46;;;;;;;7.90;7.10;;;10.00;99.90;;;;;;5047186;28;20523;-40
2020/12/17 07:40:11;;;;;;;9.40;7.60;;;10.00;99.90;;;;;;5049798;28;20989;-39
2020/12/17 07:42:38;;;;;;;9.10;7.60;;;10.10;99.90;;;;;;5047743;28;20508;-39
2020/12/17 07:45:05;;;;;;;8.87;7.30;;;10.30;99.90;;;;;;5049035;28;20277;-39
2020/12/17 07:47:30;;;;;;;9.00;8.10;;;10.10;99.90;;;;;;5046286;28;20420;-39
2020/12/17 07:49:57;;;;;;;8.53;7.73;;;10.10;99.90;;;;;;5050922;28;20439;-38
2020/12/17 07:52:33;;;;;;;8.83;7.40;;;10.00;99.90;;;;;;5048874;28;20304;-39
2020/12/17 07:55:00;;;;;;;9.63;8.27;;;9.90;99.90;;;;;;5044717;28;20416;-38
2020/12/17 07:57:26;;;;;;;10.67;8.63;;;10.20;99.90;;;;;;5047587;28;20424;-38
2020/12/17 07:59:52;;;;;;;8.73;7.83;;;10.00;99.90;;;;;;5047494;28;20847;-39
2020/12/17 08:02:18;;;;;;;9.87;8.50;;;10.00;99.90;;;;;;5050127;28;20418;-38
2020/12/17 08:04:53;;;;;;;8.27;7.47;;;9.90;99.90;;;;;;5047701;28;20432;-38
2020/12/17 08:07:22;;;;;;;12.50;7.90;;;10.10;99.90;;;;;;5050443;28;20397;-39
2020/12/17 08:10:00;;;;;;;10.40;8.53;;;10.00;99.90;;;;;;5048845;28;20416;-39
2020/12/17 08:12:26;;;;;;;12.80;7.97;;;10.00;99.90;;;;;;5048410;28;20464;-39
2020/12/17 08:14:53;;;;;;;9.80;8.80;;;10.00;99.90;;;;;;5047230;28;20424;-39
2020/12/17 08:17:20;;;;;;;9.13;8.23;;;9.90;99.90;;;;;;5045381;28;20197;-38
2020/12/17 08:19:58;;;;;;;9.70;8.70;;;10.10;99.90;;;;;;5062104;28;20775;-39
2020/12/17 08:22:28;;;;;;;9.40;7.90;;;9.90;99.90;;;;;;5049730;28;20508;-39
2020/12/17 08:25:02;;;;;;;8.67;7.83;;;9.90;99.90;;;;;;5047417;28;20889;-39
2020/12/17 08:27:29;;;;;;;8.17;7.37;;;10.00;99.90;;;;;;5038794;28;20852;-38
2020/12/17 08:29:54;;;;;;;8.20;7.40;;;10.10;99.90;;;;;;5046075;28;20515;-38
2020/12/17 08:32:20;;;;;;;9.50;7.57;;;9.90;99.90;;;;;;5046900;28;20563;-38
2020/12/17 08:34:55;;;;;;;8.03;7.23;;;9.90;99.90;;;;;;5046958;28;20189;-38
2020/12/17 08:37:22;;;;;;;8.90;7.10;;;9.90;99.90;;;;;;5048722;28;20204;-38
2020/12/17 08:40:04;;;;;;;8.47;7.00;;;10.00;99.90;;;;;;5053998;28;20443;-38
2020/12/17 08:42:36;;;;;;;7.70;6.43;;;10.00;99.90;;;;;;5058059;28;20452;-38
2020/12/17 08:45:10;;;;;;;8.23;6.67;;;10.00;99.90;;;;;;5047125;28;20824;-39
2020/12/17 08:47:41;;;;;;;7.53;6.70;;;10.00;99.90;;;;;;5064585;28;20789;-39
2020/12/17 08:50:08;;;;;;;7.07;6.37;;;9.90;99.90;;;;;;5063076;28;20420;-39
2020/12/17 08:52:35;;;;;;;7.30;6.60;;;10.10;99.90;;;;;;5050080;28;20572;-39
2020/12/17 08:55:06;;;;;;;12.00;6.90;;;9.90;99.90;;;;;;5063197;28;20519;-38
2020/12/17 08:57:32;;;;;;;6.93;6.27;;;9.90;99.90;;;;;;5051785;28;20422;-40
2020/12/17 08:59:58;;;;;;;7.33;6.50;;;10.00;99.90;;;;;;5055751;28;20439;-39
2020/12/17 09:02:30;;;;;;;7.73;6.73;;;9.90;99.90;;;;;;5046857;28;20490;-39
2020/12/17 09:04:57;;;;;;;6.73;5.60;;;9.90;99.90;;;;;;5047236;28;21066;-39
2020/12/17 09:07:28;;;;;;;6.20;5.60;;;9.70;99.90;;;;;;5054122;28;20980;-39
2020/12/17 09:10:13;;;;;;;8.17;6.47;;;9.70;99.90;;;;;;5047865;28;20454;-38
2020/12/17 09:12:39;;;;;;;6.30;5.60;;;9.80;99.90;;;;;;5047572;28;20811;-39
2020/12/17 09:15:10;;;;;;;6.33;5.73;;;10.00;99.90;;;;;;5047442;28;20417;-39
2020/12/17 09:17:36;;;;;;;6.20;5.60;;;10.00;99.90;;;;;;5047626;28;21112;-38
2020/12/17 09:20:17;;;;;;;6.90;5.87;;;9.90;99.90;;;;;;5047647;28;20956;-39
2020/12/17 09:22:45;;;;;;;6.10;5.50;;;9.90;99.90;;;;;;5058393;28;20426;-38
2020/12/17 09:25:12;;;;;;;8.23;5.90;;;9.80;99.90;;;;;;5065609;28;21020;-38
2020/12/17 09:27:38;;;;;;;7.03;5.17;;;9.90;99.90;;;;;;5047619;28;20630;-39
2020/12/17 09:30:06;;;;;;;6.70;5.40;;;9.80;99.90;;;;;;5047843;28;20433;-38
2020/12/17 09:32:32;;;;;;;7.00;5.70;;;10.10;99.90;;;;;;5047439;28;20498;-38
2020/12/17 09:35:03;;;;;;;8.47;6.10;;;10.00;99.90;;;;;;5046633;28;20432;-39
2020/12/17 09:37:29;;;;;;;6.60;5.77;;;10.50;99.90;;;;;;5044845;28;20408;-39
2020/12/17 09:39:54;;;;;;;6.33;5.60;;;10.90;99.90;;;;;;5047750;28;20450;-39
2020/12/17 09:42:20;;;;;;;5.17;4.67;;;11.30;99.90;;;;;;5048193;28;20192;-38
2020/12/17 09:44:46;;;;;;;5.43;4.93;;;11.60;99.90;;;;;;5046921;28;20190;-39
2020/12/17 09:47:12;;;;;;;4.73;4.03;;;11.40;99.90;;;;;;5046692;28;20942;-38
2020/12/17 09:49:39;;;;;;;6.30;4.40;;;11.30;99.90;;;;;;5048900;28;20239;-39
2020/12/17 09:52:12;;;;;;;4.50;3.77;;;11.40;99.90;;;;;;5051721;28;20192;-39
2020/12/17 09:54:44;;;;;;;3.57;3.27;;;11.60;99.90;;;;;;5045750;28;20447;-38
2020/12/17 09:57:12;;;;;;;3.37;3.07;;;11.50;99.90;;;;;;5046762;28;20534;-38
2020/12/17 09:59:40;;;;;;;4.53;3.47;;;11.80;99.90;;;;;;5046260;28;20422;-39
2020/12/17 10:02:09;;;;;;;6.07;3.47;;;12.20;99.90;;;;;;5046913;28;20424;-41
2020/12/17 10:04:35;;;;;;;4.53;3.60;;;12.20;99.90;;;;;;5045933;28;20405;-39
2020/12/17 10:07:01;;;;;;;3.00;2.80;;;12.80;99.90;;;;;;5048381;28;20791;-39
2020/12/17 10:09:28;;;;;;;3.10;2.80;;;13.20;99.90;;;;;;5056066;28;20423;-39
2020/12/17 10:11:55;;;;;;;5.23;2.50;;;13.40;99.90;;;;;;5048517;28;20174;-38
2020/12/17 10:14:21;;;;;;;2.30;2.10;;;13.10;99.90;;;;;;5046163;28;20464;-38
2020/12/17 10:16:48;;;;;;;2.63;2.33;;;12.70;99.90;;;;;;5046835;28;20995;-38
2020/12/17 10:19:18;;;;;;;3.27;2.57;;;12.50;99.90;;;;;;5048191;28;20492;-39
2020/12/17 10:21:47;;;;;;;2.40;1.93;;;12.50;99.90;;;;;;5049684;28;20841;-39
2020/12/17 10:24:12;;;;;;;2.13;1.93;;;13.00;99.90;;;;;;5049990;28;20549;-38
2020/12/17 10:26:38;;;;;;;5.23;2.57;;;13.90;99.90;;;;;;5050835;28;20894;-39
2020/12/17 10:29:03;;;;;;;2.60;2.40;;;13.90;99.90;;;;;;5050775;28;20534;-39
2020/12/17 10:31:29;;;;;;;3.13;2.23;;;13.80;99.90;;;;;;5051150;28;20198;-39
2020/12/17 10:33:55;;;;;;;2.30;2.10;;;13.60;99.90;;;;;;5059597;28;20222;-38
2020/12/17 10:36:22;;;;;;;5.03;2.60;;;12.80;99.90;;;;;;5070437;28;20383;-38
2020/12/17 10:38:48;;;;;;;7.13;3.07;;;12.60;99.90;;;;;;5055684;28;20423;-38
2020/12/17 10:41:18;;;;;;;6.10;2.70;;;12.00;99.90;;;;;;5051530;28;20787;-39
2020/12/17 10:43:44;;;;;;;4.60;2.63;;;11.80;99.90;;;;;;5047958;28;20448;-38
2020/12/17 10:46:10;;;;;;;2.97;2.67;;;11.70;99.90;;;;;;5054985;28;20478;-39
2020/12/17 10:48:38;;;;;;;3.47;2.30;;;11.30;99.90;;;;;;5050121;28;20292;-39
2020/12/17 10:51:04;;;;;;;3.43;2.40;;;11.30;99.90;;;;;;5050071;28;20416;-38
2020/12/17 10:53:30;;;;;;;2.73;2.53;;;11.10;99.90;;;;;;5049381;28;20467;-38
2020/12/17 10:55:55;;;;;;;15.17;4.43;;;11.10;99.90;;;;;;5067939;28;20264;-38
2020/12/17 10:58:21;;;;;;;5.03;2.73;;;10.90;99.90;;;;;;5068720;28;20185;-39
2020/12/17 11:00:47;;;;;;;2.83;2.23;;;10.80;99.90;;;;;;5049406;28;20534;-38
2020/12/17 11:03:12;;;;;;;2.87;2.20;;;10.90;99.90;;;;;;5047690;28;20775;-38
2020/12/17 11:05:38;;;;;;;7.80;2.13;;;10.90;99.90;;;;;;5049382;28;20198;-38
2020/12/17 11:08:04;;;;;;;1.93;1.80;;;10.50;99.90;;;;;;5049859;28;20669;-38
2020/12/17 11:10:30;;;;;;;3.17;2.10;;;10.60;99.90;;;;;;5067377;28;20533;-38
2020/12/17 11:12:55;;;;;;;2.30;1.97;;;10.60;99.90;;;;;;5069441;28;20213;-38
2020/12/17 11:15:21;;;;;;;2.10;1.70;;;10.90;99.90;;;;;;5069724;28;20472;-39
2020/12/17 11:17:47;;;;;;;2.53;2.03;;;10.90;99.90;;;;;;5069361;28;20291;-38
2020/12/17 11:20:13;;;;;;;6.30;2.20;;;11.00;99.90;;;;;;5069565;28;20177;-39
2020/12/17 11:22:39;;;;;;;4.53;2.00;;;10.90;99.90;;;;;;5070126;28;20205;-39
2020/12/17 11:25:05;;;;;;;7.37;1.70;;;10.80;99.90;;;;;;5068756;28;20426;-38
2020/12/17 11:27:31;;;;;;;4.37;2.00;;;10.90;99.90;;;;;;5068312;28;20438;-38
2020/12/17 11:29:57;;;;;;;3.40;1.87;;;10.90;99.90;;;;;;5038533;28;20423;-39
2020/12/17 11:32:23;;;;;;;2.20;1.83;;;11.10;99.90;;;;;;5048814;28;20213;-38
2020/12/17 11:34:50;;;;;;;4.20;2.07;;;11.30;99.90;;;;;;5049207;28;20186;-39
2020/12/17 11:37:16;;;;;;;1.97;1.80;;;11.50;99.90;;;;;;5049402;28;20590;-39
2020/12/17 11:39:42;;;;;;;3.10;1.80;;;11.60;99.90;;;;;;5049521;28;20770;-39
2020/12/17 11:42:07;;;;;;;3.47;1.90;;;11.70;99.90;;;;;;5049205;28;20424;-38
2020/12/17 11:44:33;;;;;;;5.93;2.33;;;11.70;99.90;;;;;;5047442;28;20209;-38
2020/12/17 11:46:59;;;;;;;3.27;1.70;;;11.90;99.90;;;;;;5048798;28;20252;-38
2020/12/17 11:49:25;;;;;;;1.87;1.63;;;11.90;99.90;;;;;;5049257;28;20558;-38
2020/12/17 11:51:54;;;;;;;4.13;2.07;;;11.60;99.90;;;;;;5047738;28;20426;-39
2020/12/17 11:54:20;;;;;;;6.90;1.90;;;11.30;99.90;;;;;;5048574;28;20736;-38
2020/12/17 11:56:49;;;;;;;2.50;2.10;;;11.40;99.90;;;;;;5049250;28;20574;-38
2020/12/17 11:59:18;;;;;;;3.20;1.60;;;11.90;99.90;;;;;;5048739;28;20428;-38
2020/12/17 12:01:45;;;;;;;3.67;2.40;;;12.20;99.90;;;;;;5047771;28;20459;-38
2020/12/17 12:04:11;;;;;;;5.27;1.87;;;12.90;99.90;;;;;;5048495;28;20432;-38
2020/12/17 12:06:37;;;;;;;2.70;1.70;;;13.30;99.90;;;;;;5048593;28;20878;-38
2020/12/17 12:09:05;;;;;;;4.87;1.83;;;13.80;99.90;;;;;;5048805;28;20434;-38
2020/12/17 12:11:31;;;;;;;1.53;1.43;;;14.10;99.90;;;;;;5048661;28;20438;-38
2020/12/17 12:13:57;;;;;;;2.20;1.70;;;13.90;99.90;;;;;;5047870;28;20464;-38
2020/12/17 12:16:24;;;;;;;3.83;1.70;;;13.00;99.90;;;;;;5048776;28;20228;-38
2020/12/17 12:18:50;;;;;;;11.67;2.27;;;12.60;99.90;;;;;;5048808;28;20605;-38
2020/12/17 12:21:17;;;;;;;10.03;2.83;;;12.40;99.90;;;;;;5049025;28;20475;-38
2020/12/17 12:23:43;;;;;;;4.10;1.90;;;11.70;99.90;;;;;;5047805;28;20432;-39
2020/12/17 12:26:09;;;;;;;2.80;1.73;;;11.60;99.90;;;;;;5048481;28;20894;-38
2020/12/17 12:28:35;;;;;;;4.13;1.77;;;11.50;99.90;;;;;;5046768;28;20516;-38
2020/12/17 12:31:04;;;;;;;12.20;2.10;;;11.30;99.90;;;;;;5048502;28;20857;-38
2020/12/17 12:33:30;;;;;;;8.47;2.77;;;11.50;99.90;;;;;;5047478;28;20213;-38
2020/12/17 12:35:56;;;;;;;5.07;2.50;;;11.30;99.90;;;;;;5047304;28;20432;-38
2020/12/17 12:38:22;;;;;;;4.90;1.63;;;11.20;99.90;;;;;;5048147;28;20439;-38
2020/12/17 12:40:48;;;;;;;3.40;1.70;;;11.10;99.90;;;;;;5047960;28;20420;-38
2020/12/17 12:43:14;;;;;;;2.13;1.60;;;11.10;99.90;;;;;;5047223;28;20626;-38
2020/12/17 12:45:40;;;;;;;4.90;1.80;;;11.10;99.90;;;;;;5048220;28;20629;-38
2020/12/17 12:48:06;;;;;;;4.30;1.80;;;11.20;99.90;;;;;;5047880;28;20563;-38
2020/12/17 12:50:31;;;;;;;4.27;1.57;;;11.10;99.90;;;;;;5048517;28;20221;-37
2020/12/17 12:52:57;;;;;;;2.90;1.83;;;10.90;99.90;;;;;;5047396;28;20227;-38